KBWD

Brownwood Regional Airport

Brownwood, Texas, USA
METAR KBWD 150315Z AUTO 00000KT 10SM FEW047 SCT055 25/20 A2994 RMK AO2
Observed Flight Rules
Aug-15 @ 03:15 UTC (19 minutes ago) Visual Flight Rules
Visibility Clouds
10 miles
  • Few at 4,700' AGL
  • Scattered at 5,500' AGL
Temperatures Readings
Current 25°C / 77°F
Dewpoint 20°C / 68°F
Humidity 74%
Altimeter 29.94" Hg
Pressure 1014 hPa
Elevation 423
METAR KBWD 150315Z AUTO 00000KT 10SM FEW047 SCT055 25/20 A2994 RMK AO2
Observed Flight Rules
Aug-15 @ 03:15 UTC
(19 minutes ago)
VFR
Clouds
  • Few at 4,700' AGL
  • Scattered at 5,500' AGL
Temperature Dewpoint
25°C / 77°F 20°C / 68°F
Humidity Altimeter Pressure
74% 29.94" Hg 1014 hPa